createdAt,value
2023-02-02T00:00:39.420Z,56.11
2023-02-02T00:05:53.186Z,56.00
2023-02-02T00:10:56.039Z,56.43
2023-02-02T00:15:58.892Z,56.74
2023-02-02T00:21:01.684Z,57.05
2023-02-02T00:26:04.851Z,56.80
2023-02-02T00:31:07.758Z,56.18
2023-02-02T00:36:10.411Z,55.83
2023-02-02T00:41:13.477Z,56.27
2023-02-02T00:46:19.203Z,55.97
2023-02-02T00:51:22.357Z,56.18
2023-02-02T00:56:26.235Z,55.77
2023-02-02T01:01:29.607Z,55.97
2023-02-02T01:06:32.269Z,55.78
2023-02-02T01:11:34.914Z,55.41
2023-02-02T01:16:37.740Z,56.03
2023-02-02T01:21:40.402Z,56.09
2023-02-02T01:26:43.286Z,56.61
2023-02-02T01:31:46.193Z,55.86
2023-02-02T01:36:49.188Z,56.28
2023-02-02T01:41:52.129Z,56.24
2023-02-02T01:46:54.951Z,56.40
2023-02-02T01:52:01.100Z,56.87
2023-02-02T01:57:12.958Z,56.59
2023-02-02T02:02:16.834Z,56.43
2023-02-02T02:07:20.140Z,56.96
2023-02-02T02:12:22.863Z,56.10
2023-02-02T02:17:49.747Z,55.91
2023-02-02T02:23:42.963Z,55.40
2023-02-02T02:29:21.354Z,55.95
2023-02-02T02:34:53.250Z,56.46
2023-02-02T02:40:09.617Z,56.70
2023-02-02T02:45:14.053Z,55.96
2023-02-02T02:50:17.167Z,56.06
2023-02-02T02:55:20.173Z,55.13
2023-02-02T03:00:40.489Z,55.47
2023-02-02T03:06:04.916Z,55.89
2023-02-02T03:11:11.477Z,55.61
2023-02-02T03:16:16.647Z,55.39
2023-02-02T03:21:19.651Z,55.12
2023-02-02T03:26:22.461Z,54.93
2023-02-02T03:31:29.018Z,54.96
2023-02-02T03:36:31.717Z,55.11
2023-02-02T03:41:34.408Z,55.55
2023-02-02T03:46:37.384Z,55.17
2023-02-02T03:51:40.280Z,55.16
2023-02-02T03:56:43.182Z,55.39
2023-02-02T04:01:45.904Z,55.44
2023-02-02T04:06:48.714Z,55.38
2023-02-02T04:11:51.414Z,55.15
2023-02-02T04:16:54.067Z,55.41
2023-02-02T04:21:56.788Z,55.54
2023-02-02T04:26:59.535Z,55.45
2023-02-02T04:32:02.299Z,55.36
2023-02-02T04:37:05.034Z,55.77
2023-02-02T04:42:07.604Z,55.57
2023-02-02T04:47:10.228Z,55.93
2023-02-02T04:52:13.450Z,55.32
2023-02-02T04:57:16.117Z,55.24
2023-02-02T05:02:19.925Z,54.88
2023-02-02T05:07:22.548Z,55.01
2023-02-02T05:12:25.357Z,54.89
2023-02-02T05:17:28.477Z,54.50
2023-02-02T05:22:31.163Z,54.50
2023-02-02T05:27:33.927Z,54.58
2023-02-02T05:32:36.676Z,54.72
2023-02-02T05:37:39.376Z,54.63
2023-02-02T05:42:42.165Z,54.31
2023-02-02T05:47:44.831Z,54.86
2023-02-02T05:52:49.043Z,54.11
2023-02-02T05:57:51.740Z,53.97
2023-02-02T06:02:54.652Z,53.29
2023-02-02T06:08:02.537Z,53.38
2023-02-02T06:13:05.194Z,53.30
2023-02-02T06:18:08.654Z,53.04
2023-02-02T06:23:11.282Z,53.10
2023-02-02T06:28:13.851Z,53.07
2023-02-02T06:33:16.982Z,52.91
2023-02-02T06:38:19.907Z,52.39
2023-02-02T06:43:22.612Z,52.34
2023-02-02T06:48:25.638Z,52.38
2023-02-02T06:53:28.334Z,53.13
2023-02-02T06:58:32.379Z,53.74
2023-02-02T07:03:35.910Z,53.19
2023-02-02T07:08:38.779Z,53.11
2023-02-02T07:13:41.678Z,53.17
2023-02-02T07:18:45.093Z,53.23
2023-02-02T07:23:48.859Z,52.40
2023-02-02T07:28:52.471Z,51.70
2023-02-02T07:33:55.535Z,51.52
2023-02-02T07:38:58.317Z,50.76
2023-02-02T07:44:01.391Z,49.83
2023-02-02T07:49:04.307Z,50.03
2023-02-02T07:54:07.462Z,49.64
2023-02-02T07:59:11.381Z,48.85
2023-02-02T08:04:14.112Z,49.39
2023-02-02T08:09:17.167Z,49.43
2023-02-02T08:14:20.065Z,48.48
2023-02-02T08:19:22.962Z,47.70
2023-02-02T08:24:26.289Z,47.82
2023-02-02T08:29:29.250Z,47.46
2023-02-02T08:34:35.022Z,46.94
2023-02-02T08:39:37.852Z,47.32
2023-02-02T08:45:01.322Z,46.37
2023-02-02T08:50:03.265Z,45.01
2023-02-02T08:55:07.438Z,44.81
2023-02-02T09:00:12.010Z,43.80
2023-02-02T09:05:15.766Z,42.04
2023-02-02T09:10:18.632Z,41.60
2023-02-02T09:15:21.536Z,40.64
2023-02-02T09:20:24.489Z,39.87
2023-02-02T09:25:28.624Z,39.22
2023-02-02T09:30:32.505Z,38.34
2023-02-02T09:35:35.404Z,37.94
2023-02-02T09:40:38.383Z,37.53
2023-02-02T09:46:03.333Z,37.60
2023-02-02T09:51:18.732Z,37.93
2023-02-02T09:56:33.473Z,37.63
2023-02-02T10:01:43.018Z,37.34
2023-02-02T10:06:52.278Z,37.74
2023-02-02T10:12:17.512Z,37.91
2023-02-02T10:17:29.389Z,37.92
2023-02-02T10:22:34.728Z,38.12
2023-02-02T10:27:41.259Z,38.76
2023-02-02T10:32:55.875Z,38.05
2023-02-02T10:38:24.303Z,38.32
2023-02-02T10:44:04.392Z,38.66
2023-02-02T10:49:34.292Z,39.20
2023-02-02T10:54:58.419Z,39.62
2023-02-02T11:00:22.527Z,40.40
2023-02-02T11:05:47.662Z,40.77
2023-02-02T11:10:53.490Z,40.91
2023-02-02T11:16:17.607Z,41.25
2023-02-02T11:21:27.945Z,41.18
2023-02-02T11:26:48.428Z,40.98
2023-02-02T11:31:51.346Z,40.79
2023-02-02T11:37:03.523Z,41.56
2023-02-02T11:42:20.776Z,41.59
2023-02-02T11:47:34.164Z,41.59
2023-02-02T11:52:40.593Z,41.70
2023-02-02T11:58:12.182Z,42.03
2023-02-02T12:03:40.114Z,42.99
2023-02-02T12:08:42.855Z,42.98
2023-02-02T12:13:59.175Z,43.62
2023-02-02T12:19:20.791Z,43.98
2023-02-02T12:24:46.543Z,43.81
2023-02-02T12:30:15.402Z,43.91
2023-02-02T12:35:45.355Z,44.30
2023-02-02T12:41:10.211Z,44.31
2023-02-02T12:46:28.364Z,44.54
2023-02-02T12:51:56.014Z,44.95
2023-02-02T12:56:58.876Z,45.01
2023-02-02T13:02:29.622Z,45.35
2023-02-02T13:07:47.856Z,45.27
2023-02-02T13:13:12.771Z,45.43
2023-02-02T13:18:27.819Z,45.52
2023-02-02T13:24:00.240Z,45.84
2023-02-02T13:29:23.890Z,46.12
2023-02-02T13:34:39.903Z,46.23
2023-02-02T13:39:49.865Z,46.17
2023-02-02T13:44:59.107Z,46.86
2023-02-02T13:50:08.009Z,47.18
2023-02-02T13:55:51.719Z,47.39
2023-02-02T14:00:59.927Z,47.41
2023-02-02T14:06:17.581Z,48.20
2023-02-02T14:11:31.547Z,47.91
2023-02-02T14:16:34.239Z,48.29
2023-02-02T14:21:37.051Z,49.67
2023-02-02T14:26:43.652Z,50.25
2023-02-02T14:31:55.647Z,50.64
2023-02-02T14:37:20.741Z,50.90
2023-02-02T14:43:00.710Z,51.32
2023-02-02T14:48:22.001Z,50.84
2023-02-02T14:53:30.760Z,50.80
2023-02-02T14:58:52.852Z,51.23
2023-02-02T15:04:21.756Z,51.22
2023-02-02T15:09:28.682Z,50.91
2023-02-02T15:15:01.626Z,50.62
2023-02-02T15:20:15.014Z,50.31
2023-02-02T15:26:08.071Z,49.74
2023-02-02T15:31:27.529Z,50.00
2023-02-02T15:36:38.905Z,49.66
2023-02-02T15:41:47.014Z,50.35
2023-02-02T15:46:51.378Z,50.01
2023-02-02T15:51:57.279Z,50.13
2023-02-02T15:57:00.900Z,50.32
2023-02-02T16:02:12.337Z,50.12
2023-02-02T16:07:22.151Z,50.40
2023-02-02T16:12:24.984Z,50.45
2023-02-02T16:17:32.671Z,50.73
2023-02-02T16:22:38.338Z,50.39
2023-02-02T16:27:46.595Z,50.49
2023-02-02T16:32:50.090Z,50.38
2023-02-02T16:37:53.783Z,50.88
2023-02-02T16:43:07.901Z,50.55
2023-02-02T16:48:29.942Z,50.89
2023-02-02T16:53:32.746Z,50.96
2023-02-02T16:58:43.952Z,50.45
2023-02-02T17:03:55.526Z,50.92
2023-02-02T17:09:15.828Z,51.32
2023-02-02T17:14:30.339Z,51.53
2023-02-02T17:19:32.910Z,52.35
2023-02-02T17:24:35.705Z,52.17
2023-02-02T17:29:38.406Z,52.03
2023-02-02T17:34:41.456Z,52.56
2023-02-02T17:39:44.923Z,51.78
2023-02-02T17:44:47.714Z,51.95
2023-02-02T17:49:50.516Z,52.53
2023-02-02T17:54:53.258Z,53.01
2023-02-02T17:59:55.843Z,52.97
2023-02-02T18:04:58.808Z,53.60
2023-02-02T18:10:01.769Z,53.67
2023-02-02T18:15:09.215Z,53.43
2023-02-02T18:20:15.352Z,54.20
2023-02-02T18:25:19.437Z,54.22
2023-02-02T18:30:22.167Z,54.48
2023-02-02T18:35:26.149Z,55.84
2023-02-02T18:40:28.991Z,56.17
2023-02-02T18:45:31.826Z,55.97
2023-02-02T18:50:35.081Z,56.96
2023-02-02T18:55:38.159Z,57.01
2023-02-02T19:00:42.384Z,57.48
2023-02-02T19:06:03.705Z,58.13
2023-02-02T19:11:14.858Z,58.76
2023-02-02T19:16:30.515Z,58.46
2023-02-02T19:21:34.907Z,58.78
2023-02-02T19:26:41.493Z,60.04
2023-02-02T19:31:45.532Z,61.95
2023-02-02T19:36:50.428Z,61.68
2023-02-02T19:41:57.330Z,61.87
2023-02-02T19:47:00.855Z,61.82
2023-02-02T19:52:04.890Z,62.55
2023-02-02T19:57:13.346Z,62.49
2023-02-02T20:02:32.416Z,62.70
2023-02-02T20:07:35.242Z,63.06
2023-02-02T20:12:38.166Z,63.74
2023-02-02T20:17:40.820Z,64.20
2023-02-02T20:22:44.648Z,64.34
2023-02-02T20:27:47.407Z,64.40
2023-02-02T20:32:55.533Z,63.86
2023-02-02T20:37:58.443Z,65.16
2023-02-02T20:43:01.287Z,64.68
2023-02-02T20:48:04.179Z,63.92
2023-02-02T20:53:07.224Z,64.50
2023-02-02T20:58:11.516Z,64.91
2023-02-02T21:03:14.238Z,65.00
2023-02-02T21:08:17.171Z,64.80
2023-02-02T21:13:20.081Z,64.60
2023-02-02T21:18:22.726Z,64.72
2023-02-02T21:23:25.401Z,65.32
2023-02-02T21:28:28.254Z,65.17
2023-02-02T21:33:30.806Z,64.59
2023-02-02T21:38:33.582Z,64.03
2023-02-02T21:43:37.654Z,64.19
2023-02-02T21:48:42.210Z,64.87
2023-02-02T21:53:45.156Z,64.20
2023-02-02T21:58:48.154Z,64.40
2023-02-02T22:03:51.306Z,64.62
2023-02-02T22:09:01.357Z,65.24
2023-02-02T22:14:25.381Z,64.74
2023-02-02T22:19:34.764Z,65.68
2023-02-02T22:24:37.721Z,65.08
2023-02-02T22:29:40.527Z,65.26
2023-02-02T22:34:43.597Z,65.16
2023-02-02T22:39:46.311Z,65.00
2023-02-02T22:44:49.067Z,65.07
2023-02-02T22:49:51.932Z,65.02
2023-02-02T22:54:54.499Z,65.63
2023-02-02T22:59:57.139Z,65.30
2023-02-02T23:04:59.870Z,64.72
2023-02-02T23:10:02.771Z,65.32
2023-02-02T23:15:07.247Z,65.11
2023-02-02T23:20:13.709Z,65.74
2023-02-02T23:25:18.825Z,65.38
2023-02-02T23:30:24.622Z,65.98
2023-02-02T23:35:27.729Z,65.96
2023-02-02T23:40:30.348Z,65.61
2023-02-02T23:45:33.218Z,66.12
2023-02-02T23:50:39.979Z,66.06
2023-02-02T23:55:44.144Z,66.61
